createdAt,value
2022-09-30T00:05:07.481Z,98631.28
2022-09-30T00:07:55.095Z,98634.94
2022-09-30T00:10:42.503Z,98632.34
2022-09-30T00:13:30.154Z,98632.88
2022-09-30T00:16:18.545Z,98629.22
2022-09-30T00:19:06.956Z,98634.97
2022-09-30T00:21:55.946Z,98634.44
2022-09-30T00:24:43.462Z,98637.56
2022-09-30T00:27:51.733Z,98634.97
2022-09-30T00:30:39.260Z,98638.34
2022-09-30T00:33:26.670Z,98639.13
2022-09-30T00:36:14.118Z,98631.81
2022-09-30T00:39:02.903Z,98629.47
2022-09-30T00:41:54.665Z,98634.13
2022-09-30T00:45:04.418Z,98634.94
2022-09-30T00:48:10.168Z,98635.72
2022-09-30T00:50:57.839Z,98637.53
2022-09-30T00:53:52.650Z,98629.72
2022-09-30T00:56:46.287Z,98626.06
2022-09-30T01:00:06.544Z,98625.31
2022-09-30T01:03:11.722Z,98629.97
2022-09-30T01:06:00.124Z,98630.53
2022-09-30T01:08:48.013Z,98623.44
2022-09-30T01:12:14.256Z,98639.63
2022-09-30T01:15:09.662Z,98636.50
2022-09-30T01:18:07.428Z,98643.81
2022-09-30T01:21:42.399Z,98635.97
2022-09-30T01:25:04.225Z,98645.63
2022-09-30T01:28:25.262Z,98652.13
2022-09-30T01:31:32.868Z,98649.75
2022-09-30T01:35:12.628Z,98649.00
2022-09-30T01:38:17.097Z,98647.41
2022-09-30T01:41:09.067Z,98655.22
2022-09-30T01:44:06.499Z,98653.97
2022-09-30T01:47:11.806Z,98652.91
2022-09-30T01:50:34.651Z,98654.22
2022-09-30T01:54:20.988Z,98668.84
2022-09-30T01:57:39.557Z,98659.16
2022-09-30T02:00:43.669Z,98661.53
2022-09-30T02:03:37.979Z,98659.94
2022-09-30T02:06:29.329Z,98670.88
2022-09-30T02:09:23.986Z,98671.88
2022-09-30T02:12:17.685Z,98680.50
2022-09-30T02:15:11.174Z,98683.38
2022-09-30T02:18:03.604Z,98685.72
2022-09-30T02:20:59.673Z,98687.06
2022-09-30T02:23:49.072Z,98687.06
2022-09-30T02:26:42.254Z,98692.03
2022-09-30T02:29:33.885Z,98685.50
2022-09-30T02:32:28.907Z,98697.50
2022-09-30T02:35:27.564Z,98689.66
2022-09-30T02:38:29.714Z,98690.22
2022-09-30T02:41:41.323Z,98689.97
2022-09-30T02:44:29.454Z,98693.06
2022-09-30T02:47:27.624Z,98687.06
2022-09-30T02:50:21.891Z,98694.63
2022-09-30T02:53:24.429Z,98700.13
2022-09-30T02:56:23.446Z,98703.25
2022-09-30T02:59:11.483Z,98700.66
2022-09-30T03:01:59.326Z,98686.56
2022-09-30T03:04:50.494Z,98694.38
2022-09-30T03:07:57.888Z,98702.44
2022-09-30T03:11:06.802Z,98703.25
2022-09-30T03:14:34.982Z,98700.13
2022-09-30T03:17:42.539Z,98700.13
2022-09-30T03:20:44.927Z,98701.94
2022-09-30T03:23:56.487Z,98706.91
2022-09-30T03:26:56.754Z,98708.47
2022-09-30T03:29:55.203Z,98705.31
2022-09-30T03:33:00.841Z,98713.63
2022-09-30T03:35:57.834Z,98714.69
2022-09-30T03:38:53.211Z,98709.97
2022-09-30T03:41:45.589Z,98709.22
2022-09-30T03:44:38.221Z,98714.94
2022-09-30T03:47:27.918Z,98702.97
2022-09-30T03:50:21.098Z,98712.34
2022-09-30T03:53:12.651Z,98705.56
2022-09-30T03:56:00.077Z,98698.78
2022-09-30T03:58:48.713Z,98704.25
2022-09-30T04:01:44.533Z,98702.69
2022-09-30T04:04:38.816Z,98707.91
2022-09-30T04:07:49.594Z,98702.69
2022-09-30T04:11:01.549Z,98703.50
2022-09-30T04:13:56.394Z,98705.84
2022-09-30T04:16:44.067Z,98710.56
2022-09-30T04:19:32.226Z,98710.03
2022-09-30T04:22:22.167Z,98714.72
2022-09-30T04:25:13.366Z,98713.16
2022-09-30T04:28:00.962Z,98732.72
2022-09-30T04:30:49.625Z,98728.06
2022-09-30T04:33:46.457Z,98730.66
2022-09-30T04:36:33.937Z,98729.88
2022-09-30T04:39:21.216Z,98734.06
2022-09-30T04:42:08.593Z,98740.31
2022-09-30T04:44:58.004Z,98743.97
2022-09-30T04:47:46.628Z,98754.91
2022-09-30T04:50:35.656Z,98762.19
2022-09-30T04:53:22.974Z,98771.31
2022-09-30T04:56:10.750Z,98773.16
2022-09-30T04:58:58.109Z,98771.56
2022-09-30T05:02:03.440Z,98766.84
2022-09-30T05:08:45.377Z,98769.41
2022-09-30T05:11:34.041Z,98777.75
2022-09-30T05:14:21.938Z,98786.09
2022-09-30T05:17:09.162Z,98790.00
2022-09-30T05:19:56.396Z,98793.91
2022-09-30T05:22:45.245Z,98790.75
2022-09-30T05:25:32.855Z,98800.38
2022-09-30T05:28:20.767Z,98803.25
2022-09-30T05:31:08.478Z,98802.47
2022-09-30T05:33:58.278Z,98811.03
2022-09-30T05:36:45.907Z,98813.34
2022-09-30T05:39:34.578Z,98823.00
2022-09-30T05:42:21.965Z,98827.66
2022-09-30T05:45:10.017Z,98829.72
2022-09-30T05:47:57.936Z,98832.28
2022-09-30T05:50:51.709Z,98832.53
2022-09-30T05:53:41.273Z,98834.63
2022-09-30T05:56:30.171Z,98835.63
2022-09-30T05:59:17.713Z,98843.22
2022-09-30T06:02:05.960Z,98852.88
2022-09-30T06:04:35.027Z,98852.38
2022-09-30T06:07:07.050Z,98865.44
2022-09-30T06:09:40.488Z,98874.09
2022-09-30T06:12:36.203Z,98869.44
2022-09-30T06:15:23.457Z,98872.88
2022-09-30T06:17:54.537Z,98872.69
2022-09-30T06:20:23.777Z,98880.03
2022-09-30T06:22:52.868Z,98876.91
2022-09-30T06:25:22.355Z,98882.69
2022-09-30T06:27:52.758Z,98880.34
2022-09-30T06:30:21.914Z,98882.16
2022-09-30T06:32:51.577Z,98887.91
2022-09-30T06:35:21.795Z,98894.44
2022-09-30T06:37:52.877Z,98895.50
2022-09-30T06:40:22.429Z,98905.69
2022-09-30T06:42:52.858Z,98907.03
2022-09-30T06:45:30.908Z,98909.91
2022-09-30T06:48:02.557Z,98902.13
2022-09-30T06:50:32.737Z,98904.22
2022-09-30T06:53:06.258Z,98908.16
2022-09-30T06:55:39.247Z,98915.22
2022-09-30T06:58:16.722Z,98919.97
2022-09-30T07:00:45.814Z,98926.28
2022-09-30T07:03:26.586Z,98912.19
2022-09-30T07:06:00.138Z,98918.22
2022-09-30T07:08:31.780Z,98926.13
2022-09-30T07:11:01.567Z,98917.00
2022-09-30T07:13:33.109Z,98917.31
2022-09-30T07:16:03.346Z,98916.00
2022-09-30T07:18:32.745Z,98919.72
2022-09-30T07:21:01.802Z,98919.72
2022-09-30T07:23:32.103Z,98919.75
2022-09-30T07:26:04.735Z,98912.19
2022-09-30T07:28:39.468Z,98916.13
2022-09-30T07:31:32.024Z,98910.41
2022-09-30T07:34:01.029Z,98917.25
2022-09-30T07:36:33.416Z,98912.28
2022-09-30T07:39:06.818Z,98924.06
2022-09-30T07:41:39.776Z,98931.91
2022-09-30T07:44:14.739Z,98920.41
2022-09-30T07:46:45.839Z,98938.41
2022-09-30T07:49:25.421Z,98940.25
2022-09-30T07:51:56.818Z,98943.38
2022-09-30T07:54:30.352Z,98945.97
2022-09-30T07:57:15.953Z,98948.56
2022-09-30T07:59:46.407Z,98951.66
2022-09-30T08:02:18.845Z,98959.47
2022-09-30T08:04:48.318Z,98962.03
2022-09-30T08:07:19.527Z,98960.38
2022-09-30T08:09:49.314Z,98964.00
2022-09-30T08:12:18.361Z,98956.63
2022-09-30T08:14:48.734Z,98955.75
2022-09-30T08:17:17.712Z,98966.97
2022-09-30T08:19:46.778Z,98964.78
2022-09-30T08:22:16.557Z,98965.25
2022-09-30T08:24:45.597Z,98964.63
2022-09-30T08:27:14.637Z,98965.66
2022-09-30T08:29:54.868Z,98957.91
2022-09-30T08:32:26.485Z,98972.50
2022-09-30T08:34:55.564Z,98971.84
2022-09-30T08:37:24.894Z,98968.84
2022-09-30T08:39:54.004Z,98974.03
2022-09-30T08:42:45.754Z,98974.00
2022-09-30T08:45:32.704Z,98982.28
2022-09-30T08:51:03.642Z,98978.06
2022-09-30T08:53:37.632Z,98981.84
2022-09-30T08:56:08.477Z,98983.28
2022-09-30T08:58:41.838Z,98983.66
2022-09-30T09:01:20.938Z,98971.41
2022-09-30T09:03:51.448Z,98966.97
2022-09-30T09:06:29.113Z,98968.63
2022-09-30T09:09:23.209Z,98967.09
2022-09-30T09:12:10.833Z,98974.28
2022-09-30T09:14:58.003Z,98964.88
2022-09-30T09:17:40.389Z,98967.16
2022-09-30T09:20:16.629Z,98967.56
2022-09-30T09:22:48.251Z,98963.47
2022-09-30T09:25:20.402Z,98974.13
2022-09-30T09:27:56.517Z,98966.06
2022-09-30T09:30:28.564Z,98970.06
2022-09-30T09:33:02.256Z,98972.22
2022-09-30T09:35:42.197Z,98970.69
2022-09-30T09:38:27.092Z,98962.59
2022-09-30T09:41:19.840Z,98955.47
2022-09-30T09:44:00.418Z,98963.66
2022-09-30T09:46:33.987Z,98969.69
2022-09-30T09:49:33.930Z,98966.97
2022-09-30T09:52:43.824Z,98968.31
2022-09-30T09:55:14.634Z,98969.66
2022-09-30T09:57:43.795Z,98972.59
2022-09-30T10:00:56.436Z,98980.28
2022-09-30T10:03:28.822Z,98978.59
2022-09-30T10:06:04.995Z,98980.66
2022-09-30T10:08:38.715Z,98978.16
2022-09-30T10:11:18.697Z,98978.81
2022-09-30T10:13:48.553Z,98978.81
2022-09-30T10:16:32.121Z,98977.16
2022-09-30T10:19:03.976Z,98974.22
2022-09-30T10:21:36.346Z,98977.94
2022-09-30T10:24:29.204Z,98980.28
2022-09-30T10:26:58.420Z,98975.59
2022-09-30T10:29:31.920Z,98978.53
2022-09-30T10:32:03.034Z,98980.56
2022-09-30T10:34:35.168Z,98981.25
2022-09-30T10:37:12.048Z,98977.41
2022-09-30T10:39:45.148Z,98976.31
2022-09-30T10:42:25.970Z,98973.66
2022-09-30T10:44:59.228Z,98975.72
2022-09-30T10:47:31.305Z,98981.50
2022-09-30T10:50:08.872Z,98976.69
2022-09-30T10:52:44.720Z,98980.31
2022-09-30T10:55:30.366Z,98980.03
2022-09-30T10:58:22.945Z,98977.28
2022-09-30T11:00:59.970Z,98976.31
2022-09-30T11:03:37.912Z,98974.75
2022-09-30T11:06:08.554Z,98967.91
2022-09-30T11:08:46.613Z,98967.13
2022-09-30T11:11:22.469Z,98967.91
2022-09-30T11:13:57.772Z,98977.41
2022-09-30T11:16:35.771Z,98983.47
2022-09-30T11:19:12.731Z,98986.88
2022-09-30T11:21:46.486Z,98986.41
2022-09-30T11:24:29.751Z,98984.97
2022-09-30T11:27:09.235Z,98982.84
2022-09-30T11:29:55.715Z,98982.31
2022-09-30T11:32:42.022Z,98983.88
2022-09-30T11:35:42.003Z,98985.78
2022-09-30T11:38:23.189Z,98979.31
2022-09-30T11:41:02.468Z,98980.78
2022-09-30T11:43:45.174Z,98984.19
2022-09-30T11:46:30.545Z,98980.88
2022-09-30T11:49:40.684Z,98984.00
2022-09-30T11:52:17.981Z,98992.66
2022-09-30T11:55:23.627Z,98976.59
2022-09-30T11:58:12.062Z,98985.13
2022-09-30T12:00:59.690Z,98986.38
2022-09-30T12:03:35.715Z,98984.88
2022-09-30T12:06:12.144Z,98974.78
2022-09-30T12:08:48.193Z,98974.78
2022-09-30T12:11:23.849Z,98979.44
2022-09-30T12:13:56.729Z,98982.97
2022-09-30T12:16:30.839Z,98988.06
2022-09-30T12:19:15.243Z,98990.69
2022-09-30T12:21:53.257Z,98990.81
2022-09-30T12:24:30.862Z,98989.94
2022-09-30T12:27:02.025Z,98988.50
2022-09-30T12:29:55.514Z,98992.47
2022-09-30T12:33:03.592Z,98999.22
2022-09-30T12:35:55.223Z,98996.59
2022-09-30T12:38:52.245Z,98997.69
2022-09-30T12:41:36.490Z,98997.47
2022-09-30T12:44:47.150Z,99006.84
2022-09-30T12:47:32.798Z,99003.03
2022-09-30T12:50:08.163Z,99004.13
2022-09-30T12:52:38.519Z,99002.34
2022-09-30T12:55:19.948Z,98996.19
2022-09-30T12:57:51.373Z,99000.50
2022-09-30T13:00:23.107Z,98996.78
2022-09-30T13:03:00.245Z,99002.56
2022-09-30T13:05:56.262Z,99000.78
2022-09-30T13:08:45.422Z,98994.53
2022-09-30T13:11:37.447Z,99006.84
2022-09-30T13:14:34.421Z,99002.81
2022-09-30T13:17:29.353Z,99001.44
2022-09-30T13:19:59.745Z,99002.13
2022-09-30T13:22:59.808Z,99003.28
2022-09-30T13:25:55.165Z,99003.84
2022-09-30T13:28:39.271Z,99008.72
2022-09-30T13:31:19.146Z,99012.50
2022-09-30T13:34:09.184Z,99020.81
2022-09-30T13:36:58.947Z,99016.59
2022-09-30T13:39:31.672Z,99017.09
2022-09-30T13:42:13.467Z,99019.22
2022-09-30T13:45:01.125Z,99012.69
2022-09-30T13:47:35.399Z,99009.53
2022-09-30T13:50:16.121Z,99001.06
2022-09-30T13:52:52.119Z,99005.47
2022-09-30T13:55:26.649Z,99012.63
2022-09-30T13:58:08.468Z,99016.59
2022-09-30T14:00:55.427Z,99016.88
2022-09-30T14:03:45.723Z,99012.50
2022-09-30T14:06:23.935Z,99018.03
2022-09-30T14:09:38.958Z,99017.63
2022-09-30T14:12:29.195Z,99012.38
2022-09-30T14:15:32.521Z,99018.22
2022-09-30T14:18:46.463Z,99011.63
2022-09-30T14:21:34.090Z,99004.53
2022-09-30T14:24:11.838Z,99004.53
2022-09-30T14:27:15.867Z,99010.09
2022-09-30T14:29:57.090Z,99000.06
2022-09-30T14:32:31.466Z,99000.81
2022-09-30T14:35:08.323Z,99003.44
2022-09-30T14:37:42.618Z,98994.00
2022-09-30T14:40:19.417Z,98999.53
2022-09-30T14:42:50.111Z,98991.44
2022-09-30T14:45:26.915Z,98998.53
2022-09-30T14:48:00.060Z,99004.38
2022-09-30T14:50:32.349Z,99004.66
2022-09-30T14:53:03.614Z,99004.66
2022-09-30T14:55:39.204Z,99005.72
2022-09-30T14:58:28.584Z,98999.97
2022-09-30T15:01:08.559Z,98996.84
2022-09-30T15:03:42.730Z,98999.75
2022-09-30T15:06:20.442Z,98998.00
2022-09-30T15:08:50.887Z,98991.94
2022-09-30T15:11:26.075Z,98994.84
2022-09-30T15:14:01.173Z,98993.28
2022-09-30T15:16:32.564Z,98989.56
2022-09-30T15:19:02.537Z,98994.84
2022-09-30T15:21:33.390Z,98988.03
2022-09-30T15:24:03.036Z,98990.66
2022-09-30T15:26:35.106Z,98994.44
2022-09-30T15:29:07.907Z,98988.25
2022-09-30T15:31:44.367Z,98987.84
2022-09-30T15:34:21.743Z,98991.09
2022-09-30T15:37:04.400Z,99002.28
2022-09-30T15:39:54.171Z,99004.47
2022-09-30T15:42:38.118Z,98997.16
2022-09-30T15:45:35.096Z,98993.81
2022-09-30T15:48:08.225Z,98989.06
2022-09-30T15:50:39.995Z,98991.91
2022-09-30T15:53:22.838Z,98988.75
2022-09-30T15:55:55.857Z,98987.97
2022-09-30T15:58:39.130Z,98966.66
2022-09-30T16:01:17.734Z,98984.00
2022-09-30T16:03:55.492Z,98977.28
2022-09-30T16:06:32.861Z,98976.19
2022-09-30T16:09:06.731Z,98970.16
2022-09-30T16:11:41.966Z,98974.66
2022-09-30T16:14:21.250Z,98977.31
2022-09-30T16:16:56.900Z,98965.81
2022-09-30T16:19:27.182Z,98981.59
2022-09-30T16:22:00.797Z,98980.53
2022-09-30T16:24:50.047Z,98975.34
2022-09-30T16:27:30.475Z,98984.50
2022-09-30T16:30:02.390Z,98980.09
2022-09-30T16:32:37.539Z,98976.97
2022-09-30T16:35:08.921Z,98977.81
2022-09-30T16:37:43.053Z,98978.09
2022-09-30T16:40:24.570Z,98980.28
2022-09-30T16:42:55.958Z,98982.13
2022-09-30T16:45:28.984Z,98979.34
2022-09-30T16:48:01.574Z,98981.97
2022-09-30T16:50:38.266Z,98979.41
2022-09-30T16:53:09.865Z,98993.59
2022-09-30T16:55:40.474Z,98986.63
2022-09-30T16:58:14.072Z,98988.44
2022-09-30T17:00:46.573Z,98999.53
2022-09-30T17:03:18.477Z,99001.66
2022-09-30T17:05:53.301Z,99005.38
2022-09-30T17:08:25.103Z,99000.19
2022-09-30T17:10:54.851Z,99009.16
2022-09-30T17:13:24.564Z,99002.38
2022-09-30T17:15:56.227Z,99006.63
2022-09-30T17:18:26.016Z,99009.09
2022-09-30T17:20:55.956Z,99006.00
2022-09-30T17:23:27.082Z,99014.16
2022-09-30T17:25:56.118Z,99028.09
2022-09-30T17:28:25.878Z,99026.31
2022-09-30T17:30:56.293Z,99031.34
2022-09-30T17:33:25.257Z,99047.91
2022-09-30T17:36:02.255Z,99037.44
2022-09-30T17:38:31.950Z,99043.81
2022-09-30T17:41:19.170Z,99032.56
2022-09-30T17:43:48.301Z,99037.59
2022-09-30T17:46:23.319Z,99043.63
2022-09-30T17:48:57.462Z,99041.28
2022-09-30T17:51:26.546Z,99054.19
2022-09-30T17:53:56.990Z,99050.81
2022-09-30T17:56:26.018Z,99053.47
2022-09-30T17:58:55.024Z,99052.72
2022-09-30T18:01:25.599Z,99058.75
2022-09-30T18:03:59.347Z,99056.94
2022-09-30T18:06:30.150Z,99061.97
2022-09-30T18:09:00.408Z,99054.91
2022-09-30T18:11:31.762Z,99064.38
2022-09-30T18:14:02.034Z,99064.91
2022-09-30T18:16:34.156Z,99076.19
2022-09-30T18:19:21.315Z,99069.38
2022-09-30T18:23:04.857Z,99080.72
2022-09-30T18:44:38.601Z,99092.84
2022-09-30T18:48:28.374Z,99097.31
2022-09-30T19:07:14.613Z,99089.72
2022-09-30T19:11:34.865Z,99090.47
2022-09-30T19:15:27.967Z,99083.69
2022-09-30T19:28:11.330Z,99077.91
2022-09-30T19:39:12.372Z,99080.78
2022-09-30T19:42:57.489Z,99087.03
2022-09-30T19:49:07.567Z,99095.41
2022-09-30T19:53:41.545Z,99088.31
2022-09-30T19:56:30.952Z,99092.25
2022-09-30T19:59:03.972Z,99095.09
2022-09-30T20:01:41.923Z,99092.75
2022-09-30T20:04:51.431Z,99083.31
2022-09-30T20:39:17.471Z,99108.00
2022-09-30T20:57:47.299Z,99112.25
2022-09-30T21:06:10.491Z,99124.75
2022-09-30T21:09:15.356Z,99133.63
2022-09-30T21:12:15.343Z,99137.00
2022-09-30T21:23:30.753Z,99152.66
2022-09-30T21:26:19.253Z,99154.47
2022-09-30T21:29:06.775Z,99162.03
2022-09-30T21:31:54.331Z,99158.81
2022-09-30T21:34:41.719Z,99146.78
2022-09-30T21:40:40.274Z,99145.88
2022-09-30T21:43:55.218Z,99139.84
2022-09-30T21:46:56.604Z,99133.56
2022-09-30T21:49:48.284Z,99121.00
2022-09-30T22:20:38.141Z,99100.41
2022-09-30T22:37:43.365Z,99082.44
2022-09-30T22:40:40.272Z,99084.50
2022-09-30T22:48:21.434Z,99103.72
2022-09-30T22:52:25.521Z,99099.06
2022-09-30T22:55:17.189Z,99105.56
2022-09-30T22:58:32.607Z,99110.31
2022-09-30T23:11:04.304Z,99097.78
2022-09-30T23:15:30.536Z,99101.81
2022-09-30T23:18:31.771Z,99102.38
2022-09-30T23:22:17.992Z,99093.50
2022-09-30T23:26:06.748Z,99093.50
2022-09-30T23:30:12.302Z,99089.34
2022-09-30T23:34:26.420Z,99085.16
2022-09-30T23:37:16.182Z,99082.31
2022-09-30T23:40:04.237Z,99081.50
2022-09-30T23:43:20.632Z,99080.47
2022-09-30T23:47:16.107Z,99083.03
2022-09-30T23:50:07.163Z,99084.06
2022-09-30T23:58:05.954Z,99070.50
